sensor_id;sensor_type;location;lat;lon;timestamp;P1;durP1;ratioP1;P2;durP2;ratioP2
55314;SDS011;41619;42.816;23.226;2023-08-08T00:01:10;4.13;;;1.73;;
55314;SDS011;41619;42.816;23.226;2023-08-08T00:03:35;4.88;;;1.88;;
55314;SDS011;41619;42.816;23.226;2023-08-08T00:06:01;2.92;;;1.80;;
55314;SDS011;41619;42.816;23.226;2023-08-08T00:08:26;3.28;;;1.80;;
55314;SDS011;41619;42.816;23.226;2023-08-08T00:10:51;5.82;;;1.60;;
55314;SDS011;41619;42.816;23.226;2023-08-08T00:13:17;2.85;;;1.63;;
55314;SDS011;41619;42.816;23.226;2023-08-08T00:15:42;5.10;;;1.92;;
55314;SDS011;41619;42.816;23.226;2023-08-08T00:18:08;3.97;;;1.83;;
55314;SDS011;41619;42.816;23.226;2023-08-08T00:20:33;5.13;;;1.80;;
55314;SDS011;41619;42.816;23.226;2023-08-08T00:22:59;1.58;;;1.48;;
55314;SDS011;41619;42.816;23.226;2023-08-08T00:25:24;3.72;;;1.75;;
55314;SDS011;41619;42.816;23.226;2023-08-08T00:27:50;4.88;;;2.05;;
55314;SDS011;41619;42.816;23.226;2023-08-08T00:30:15;11.65;;;1.92;;
55314;SDS011;41619;42.816;23.226;2023-08-08T00:32:41;5.18;;;1.70;;
55314;SDS011;41619;42.816;23.226;2023-08-08T00:35:06;2.33;;;1.90;;
55314;SDS011;41619;42.816;23.226;2023-08-08T00:37:32;4.60;;;1.70;;
55314;SDS011;41619;42.816;23.226;2023-08-08T00:39:58;2.83;;;1.90;;
55314;SDS011;41619;42.816;23.226;2023-08-08T00:42:23;6.97;;;1.65;;
55314;SDS011;41619;42.816;23.226;2023-08-08T00:44:49;4.70;;;1.65;;
55314;SDS011;41619;42.816;23.226;2023-08-08T00:47:14;2.72;;;1.67;;
55314;SDS011;41619;42.816;23.226;2023-08-08T00:49:40;7.50;;;1.80;;
55314;SDS011;41619;42.816;23.226;2023-08-08T00:52:08;3.70;;;1.63;;
55314;SDS011;41619;42.816;23.226;2023-08-08T00:54:34;4.95;;;1.67;;
55314;SDS011;41619;42.816;23.226;2023-08-08T00:56:59;2.78;;;1.50;;
55314;SDS011;41619;42.816;23.226;2023-08-08T00:59:24;2.70;;;1.60;;
55314;SDS011;41619;42.816;23.226;2023-08-08T01:01:50;1.63;;;1.52;;
55314;SDS011;41619;42.816;23.226;2023-08-08T01:04:16;1.98;;;1.70;;
55314;SDS011;41619;42.816;23.226;2023-08-08T01:09:57;7.55;;;1.98;;
55314;SDS011;41619;42.816;23.226;2023-08-08T01:12:06;3.28;;;1.92;;
55314;SDS011;41619;42.816;23.226;2023-08-08T01:14:35;4.30;;;1.58;;
55314;SDS011;41619;42.816;23.226;2023-08-08T01:17:03;2.67;;;1.73;;
55314;SDS011;41619;42.816;23.226;2023-08-08T01:19:31;3.25;;;2.17;;
55314;SDS011;41619;42.816;23.226;2023-08-08T01:21:59;5.28;;;1.85;;
55314;SDS011;41619;42.816;23.226;2023-08-08T01:24:29;6.43;;;1.90;;
55314;SDS011;41619;42.816;23.226;2023-08-08T01:26:57;4.20;;;1.65;;
55314;SDS011;41619;42.816;23.226;2023-08-08T01:29:24;3.30;;;1.77;;
55314;SDS011;41619;42.816;23.226;2023-08-08T01:31:50;2.85;;;1.77;;
55314;SDS011;41619;42.816;23.226;2023-08-08T01:34:15;2.72;;;1.65;;
55314;SDS011;41619;42.816;23.226;2023-08-08T01:37:02;6.10;;;1.90;;
55314;SDS011;41619;42.816;23.226;2023-08-08T01:39:42;4.32;;;2.30;;
55314;SDS011;41619;42.816;23.226;2023-08-08T01:42:09;4.63;;;2.03;;
55314;SDS011;41619;42.816;23.226;2023-08-08T01:44:36;5.15;;;2.10;;
55314;SDS011;41619;42.816;23.226;2023-08-08T01:47:04;6.38;;;2.05;;
55314;SDS011;41619;42.816;23.226;2023-08-08T01:49:30;4.47;;;2.40;;
55314;SDS011;41619;42.816;23.226;2023-08-08T01:51:56;7.13;;;2.35;;
55314;SDS011;41619;42.816;23.226;2023-08-08T01:54:21;3.75;;;2.10;;
55314;SDS011;41619;42.816;23.226;2023-08-08T01:56:46;4.35;;;2.15;;
55314;SDS011;41619;42.816;23.226;2023-08-08T01:59:12;11.57;;;2.28;;
55314;SDS011;41619;42.816;23.226;2023-08-08T02:01:37;8.35;;;3.15;;
55314;SDS011;41619;42.816;23.226;2023-08-08T02:04:03;6.38;;;2.03;;
55314;SDS011;41619;42.816;23.226;2023-08-08T02:06:28;8.68;;;2.33;;
55314;SDS011;41619;42.816;23.226;2023-08-08T02:08:54;3.47;;;2.38;;
55314;SDS011;41619;42.816;23.226;2023-08-08T02:11:20;5.10;;;2.53;;
55314;SDS011;41619;42.816;23.226;2023-08-08T02:13:46;2.92;;;2.70;;
55314;SDS011;41619;42.816;23.226;2023-08-08T02:16:12;3.30;;;2.63;;
55314;SDS011;41619;42.816;23.226;2023-08-08T02:18:37;6.45;;;2.80;;
55314;SDS011;41619;42.816;23.226;2023-08-08T02:21:05;2.75;;;2.30;;
55314;SDS011;41619;42.816;23.226;2023-08-08T02:23:32;2.85;;;2.60;;
55314;SDS011;41619;42.816;23.226;2023-08-08T02:25:58;5.57;;;2.38;;
55314;SDS011;41619;42.816;23.226;2023-08-08T02:28:23;4.47;;;2.33;;
55314;SDS011;41619;42.816;23.226;2023-08-08T02:30:49;7.63;;;2.58;;
55314;SDS011;41619;42.816;23.226;2023-08-08T02:33:14;4.35;;;2.90;;
55314;SDS011;41619;42.816;23.226;2023-08-08T02:35:39;4.18;;;2.60;;
55314;SDS011;41619;42.816;23.226;2023-08-08T02:38:05;2.90;;;2.47;;
55314;SDS011;41619;42.816;23.226;2023-08-08T02:40:30;6.00;;;3.20;;
55314;SDS011;41619;42.816;23.226;2023-08-08T02:42:56;6.13;;;3.50;;
55314;SDS011;41619;42.816;23.226;2023-08-08T02:45:21;4.13;;;2.97;;
55314;SDS011;41619;42.816;23.226;2023-08-08T02:47:46;8.85;;;3.08;;
55314;SDS011;41619;42.816;23.226;2023-08-08T02:50:12;7.70;;;3.20;;
55314;SDS011;41619;42.816;23.226;2023-08-08T02:52:37;5.88;;;3.25;;
55314;SDS011;41619;42.816;23.226;2023-08-08T02:55:02;3.80;;;3.40;;
55314;SDS011;41619;42.816;23.226;2023-08-08T02:57:28;4.75;;;3.55;;
55314;SDS011;41619;42.816;23.226;2023-08-08T02:59:54;4.40;;;3.30;;
55314;SDS011;41619;42.816;23.226;2023-08-08T03:02:19;6.78;;;3.50;;
55314;SDS011;41619;42.816;23.226;2023-08-08T03:04:44;8.75;;;3.38;;
55314;SDS011;41619;42.816;23.226;2023-08-08T03:07:10;7.75;;;3.33;;
55314;SDS011;41619;42.816;23.226;2023-08-08T03:09:35;4.07;;;3.67;;
55314;SDS011;41619;42.816;23.226;2023-08-08T03:12:01;9.45;;;4.00;;
55314;SDS011;41619;42.816;23.226;2023-08-08T03:14:26;9.35;;;3.85;;
55314;SDS011;41619;42.816;23.226;2023-08-08T03:16:52;5.13;;;3.85;;
55314;SDS011;41619;42.816;23.226;2023-08-08T03:19:17;8.55;;;4.45;;
55314;SDS011;41619;42.816;23.226;2023-08-08T03:21:43;4.15;;;3.75;;
55314;SDS011;41619;42.816;23.226;2023-08-08T03:24:08;3.70;;;3.40;;
55314;SDS011;41619;42.816;23.226;2023-08-08T03:26:34;3.97;;;3.58;;
55314;SDS011;41619;42.816;23.226;2023-08-08T03:28:59;5.70;;;4.13;;
55314;SDS011;41619;42.816;23.226;2023-08-08T03:31:24;6.38;;;4.20;;
55314;SDS011;41619;42.816;23.226;2023-08-08T03:33:51;5.47;;;4.65;;
55314;SDS011;41619;42.816;23.226;2023-08-08T03:36:16;4.68;;;4.18;;
55314;SDS011;41619;42.816;23.226;2023-08-08T03:38:42;10.35;;;5.00;;
55314;SDS011;41619;42.816;23.226;2023-08-08T03:41:10;7.07;;;4.32;;
55314;SDS011;41619;42.816;23.226;2023-08-08T03:43:36;5.40;;;4.90;;
55314;SDS011;41619;42.816;23.226;2023-08-08T03:46:02;7.90;;;4.88;;
55314;SDS011;41619;42.816;23.226;2023-08-08T03:48:28;7.22;;;5.43;;
55314;SDS011;41619;42.816;23.226;2023-08-08T03:50:53;8.65;;;5.80;;
55314;SDS011;41619;42.816;23.226;2023-08-08T03:53:18;8.25;;;6.00;;
55314;SDS011;41619;42.816;23.226;2023-08-08T03:55:44;9.02;;;6.20;;
55314;SDS011;41619;42.816;23.226;2023-08-08T03:58:09;7.07;;;5.47;;
55314;SDS011;41619;42.816;23.226;2023-08-08T04:00:34;6.30;;;5.70;;
55314;SDS011;41619;42.816;23.226;2023-08-08T04:03:01;8.70;;;5.82;;
55314;SDS011;41619;42.816;23.226;2023-08-08T04:05:26;7.55;;;6.03;;
55314;SDS011;41619;42.816;23.226;2023-08-08T04:07:51;10.57;;;6.10;;
55314;SDS011;41619;42.816;23.226;2023-08-08T04:10:17;8.82;;;6.05;;
55314;SDS011;41619;42.816;23.226;2023-08-08T04:12:42;11.13;;;6.22;;
55314;SDS011;41619;42.816;23.226;2023-08-08T04:15:08;6.80;;;6.00;;
55314;SDS011;41619;42.816;23.226;2023-08-08T04:17:34;12.07;;;6.75;;
55314;SDS011;41619;42.816;23.226;2023-08-08T04:19:59;13.50;;;6.75;;
55314;SDS011;41619;42.816;23.226;2023-08-08T04:22:25;8.65;;;6.32;;
55314;SDS011;41619;42.816;23.226;2023-08-08T04:24:50;7.60;;;6.82;;
55314;SDS011;41619;42.816;23.226;2023-08-08T04:27:16;9.25;;;7.13;;
55314;SDS011;41619;42.816;23.226;2023-08-08T04:29:41;9.10;;;6.75;;
55314;SDS011;41619;42.816;23.226;2023-08-08T04:32:07;8.32;;;7.53;;
55314;SDS011;41619;42.816;23.226;2023-08-08T04:34:32;12.98;;;6.35;;
55314;SDS011;41619;42.816;23.226;2023-08-08T04:36:57;7.43;;;6.70;;
55314;SDS011;41619;42.816;23.226;2023-08-08T04:39:23;7.72;;;6.65;;
55314;SDS011;41619;42.816;23.226;2023-08-08T04:41:48;7.93;;;7.07;;
55314;SDS011;41619;42.816;23.226;2023-08-08T04:44:14;8.55;;;6.65;;
55314;SDS011;41619;42.816;23.226;2023-08-08T04:46:39;11.32;;;6.30;;
55314;SDS011;41619;42.816;23.226;2023-08-08T04:49:04;9.32;;;6.75;;
55314;SDS011;41619;42.816;23.226;2023-08-08T04:51:30;8.07;;;7.10;;
55314;SDS011;41619;42.816;23.226;2023-08-08T04:53:56;12.52;;;7.20;;
55314;SDS011;41619;42.816;23.226;2023-08-08T04:56:21;12.63;;;6.43;;
55314;SDS011;41619;42.816;23.226;2023-08-08T04:58:46;10.73;;;5.63;;
55314;SDS011;41619;42.816;23.226;2023-08-08T05:01:12;9.90;;;5.57;;
55314;SDS011;41619;42.816;23.226;2023-08-08T05:03:40;6.93;;;5.75;;
55314;SDS011;41619;42.816;23.226;2023-08-08T05:06:05;6.10;;;5.43;;
55314;SDS011;41619;42.816;23.226;2023-08-08T05:08:31;8.88;;;5.75;;
55314;SDS011;41619;42.816;23.226;2023-08-08T05:10:56;6.55;;;5.25;;
55314;SDS011;41619;42.816;23.226;2023-08-08T05:13:22;5.78;;;4.93;;
55314;SDS011;41619;42.816;23.226;2023-08-08T05:15:47;7.38;;;5.03;;
55314;SDS011;41619;42.816;23.226;2023-08-08T05:18:12;5.20;;;3.65;;
55314;SDS011;41619;42.816;23.226;2023-08-08T05:20:38;3.63;;;3.33;;
55314;SDS011;41619;42.816;23.226;2023-08-08T05:23:04;3.92;;;3.63;;
55314;SDS011;41619;42.816;23.226;2023-08-08T05:25:29;3.88;;;3.58;;
55314;SDS011;41619;42.816;23.226;2023-08-08T05:27:55;3.70;;;3.40;;
55314;SDS011;41619;42.816;23.226;2023-08-08T05:30:20;4.55;;;3.85;;
55314;SDS011;41619;42.816;23.226;2023-08-08T05:32:46;5.03;;;4.32;;
55314;SDS011;41619;42.816;23.226;2023-08-08T05:35:11;4.30;;;4.00;;
55314;SDS011;41619;42.816;23.226;2023-08-08T05:37:37;5.95;;;4.75;;
55314;SDS011;41619;42.816;23.226;2023-08-08T05:40:02;5.70;;;4.50;;
55314;SDS011;41619;42.816;23.226;2023-08-08T05:42:31;8.27;;;5.68;;
55314;SDS011;41619;42.816;23.226;2023-08-08T05:44:56;6.25;;;5.65;;
55314;SDS011;41619;42.816;23.226;2023-08-08T05:47:22;5.65;;;5.15;;
55314;SDS011;41619;42.816;23.226;2023-08-08T05:49:47;6.05;;;5.45;;
55314;SDS011;41619;42.816;23.226;2023-08-08T05:52:13;6.07;;;5.40;;
55314;SDS011;41619;42.816;23.226;2023-08-08T05:54:38;8.82;;;5.38;;
55314;SDS011;41619;42.816;23.226;2023-08-08T05:57:04;7.03;;;5.38;;
55314;SDS011;41619;42.816;23.226;2023-08-08T05:59:29;6.03;;;5.43;;
55314;SDS011;41619;42.816;23.226;2023-08-08T06:01:55;6.25;;;5.65;;
55314;SDS011;41619;42.816;23.226;2023-08-08T06:04:20;9.55;;;6.28;;
55314;SDS011;41619;42.816;23.226;2023-08-08T06:06:46;6.65;;;5.38;;
55314;SDS011;41619;42.816;23.226;2023-08-08T06:09:14;5.97;;;5.40;;
55314;SDS011;41619;42.816;23.226;2023-08-08T06:11:40;5.90;;;5.20;;
55314;SDS011;41619;42.816;23.226;2023-08-08T06:14:05;6.00;;;5.40;;
55314;SDS011;41619;42.816;23.226;2023-08-08T06:16:30;5.93;;;4.75;;
55314;SDS011;41619;42.816;23.226;2023-08-08T06:18:56;5.80;;;4.90;;
55314;SDS011;41619;42.816;23.226;2023-08-08T06:21:21;4.88;;;4.47;;
55314;SDS011;41619;42.816;23.226;2023-08-08T06:23:47;8.05;;;4.40;;
55314;SDS011;41619;42.816;23.226;2023-08-08T06:26:12;7.28;;;4.30;;
55314;SDS011;41619;42.816;23.226;2023-08-08T06:28:39;8.15;;;4.38;;
55314;SDS011;41619;42.816;23.226;2023-08-08T06:31:04;5.32;;;3.65;;
55314;SDS011;41619;42.816;23.226;2023-08-08T06:33:29;5.70;;;3.63;;
55314;SDS011;41619;42.816;23.226;2023-08-08T06:35:55;5.32;;;3.42;;
55314;SDS011;41619;42.816;23.226;2023-08-08T06:38:21;4.25;;;3.55;;
55314;SDS011;41619;42.816;23.226;2023-08-08T06:40:46;5.43;;;3.67;;
55314;SDS011;41619;42.816;23.226;2023-08-08T06:43:12;9.65;;;3.88;;
55314;SDS011;41619;42.816;23.226;2023-08-08T06:45:38;6.00;;;3.72;;
55314;SDS011;41619;42.816;23.226;2023-08-08T06:48:03;5.05;;;3.20;;
55314;SDS011;41619;42.816;23.226;2023-08-08T06:50:29;4.85;;;3.13;;
55314;SDS011;41619;42.816;23.226;2023-08-08T06:52:54;4.35;;;2.80;;
55314;SDS011;41619;42.816;23.226;2023-08-08T06:55:20;4.88;;;2.92;;
55314;SDS011;41619;42.816;23.226;2023-08-08T06:57:46;9.70;;;2.90;;
55314;SDS011;41619;42.816;23.226;2023-08-08T07:00:11;6.38;;;2.97;;
55314;SDS011;41619;42.816;23.226;2023-08-08T07:02:38;7.25;;;3.67;;
55314;SDS011;41619;42.816;23.226;2023-08-08T07:05:04;8.50;;;3.67;;
55314;SDS011;41619;42.816;23.226;2023-08-08T07:07:29;4.10;;;3.33;;
55314;SDS011;41619;42.816;23.226;2023-08-08T07:09:57;5.20;;;3.47;;
55314;SDS011;41619;42.816;23.226;2023-08-08T07:12:23;6.25;;;3.28;;
55314;SDS011;41619;42.816;23.226;2023-08-08T07:14:48;9.30;;;3.58;;
55314;SDS011;41619;42.816;23.226;2023-08-08T07:17:13;6.88;;;3.22;;
55314;SDS011;41619;42.816;23.226;2023-08-08T07:19:39;6.38;;;2.90;;
55314;SDS011;41619;42.816;23.226;2023-08-08T07:22:06;5.90;;;3.55;;
55314;SDS011;41619;42.816;23.226;2023-08-08T07:24:31;5.90;;;2.78;;
55314;SDS011;41619;42.816;23.226;2023-08-08T07:26:58;4.78;;;2.83;;
55314;SDS011;41619;42.816;23.226;2023-08-08T07:29:24;2.88;;;2.65;;
55314;SDS011;41619;42.816;23.226;2023-08-08T07:31:52;4.55;;;2.15;;
55314;SDS011;41619;42.816;23.226;2023-08-08T07:34:18;3.57;;;2.70;;
55314;SDS011;41619;42.816;23.226;2023-08-08T07:36:43;10.63;;;2.10;;
55314;SDS011;41619;42.816;23.226;2023-08-08T07:39:08;4.40;;;2.00;;
55314;SDS011;41619;42.816;23.226;2023-08-08T07:41:34;4.10;;;2.05;;
55314;SDS011;41619;42.816;23.226;2023-08-08T07:44:00;2.10;;;1.77;;
55314;SDS011;41619;42.816;23.226;2023-08-08T07:46:25;2.60;;;2.00;;
55314;SDS011;41619;42.816;23.226;2023-08-08T07:48:50;5.43;;;1.80;;
55314;SDS011;41619;42.816;23.226;2023-08-08T07:51:16;2.28;;;1.75;;
55314;SDS011;41619;42.816;23.226;2023-08-08T07:53:41;2.33;;;1.83;;
55314;SDS011;41619;42.816;23.226;2023-08-08T07:56:07;4.43;;;1.88;;
55314;SDS011;41619;42.816;23.226;2023-08-08T07:58:32;2.15;;;1.80;;
55314;SDS011;41619;42.816;23.226;2023-08-08T08:00:58;10.10;;;1.85;;
55314;SDS011;41619;42.816;23.226;2023-08-08T08:03:26;2.10;;;1.90;;
55314;SDS011;41619;42.816;23.226;2023-08-08T08:05:52;6.72;;;1.80;;
55314;SDS011;41619;42.816;23.226;2023-08-08T08:08:18;1.95;;;1.85;;
55314;SDS011;41619;42.816;23.226;2023-08-08T08:10:43;2.55;;;2.30;;
55314;SDS011;41619;42.816;23.226;2023-08-08T08:13:10;2.65;;;2.05;;
55314;SDS011;41619;42.816;23.226;2023-08-08T08:15:37;1.83;;;1.73;;
55314;SDS011;41619;42.816;23.226;2023-08-08T08:18:03;2.35;;;2.17;;
55314;SDS011;41619;42.816;23.226;2023-08-08T08:20:29;2.38;;;2.10;;
55314;SDS011;41619;42.816;23.226;2023-08-08T08:22:54;2.50;;;2.30;;
55314;SDS011;41619;42.816;23.226;2023-08-08T08:25:20;1.90;;;1.80;;
55314;SDS011;41619;42.816;23.226;2023-08-08T08:27:45;4.32;;;1.98;;
55314;SDS011;41619;42.816;23.226;2023-08-08T08:30:11;4.85;;;2.50;;
55314;SDS011;41619;42.816;23.226;2023-08-08T08:32:38;3.03;;;1.98;;
55314;SDS011;41619;42.816;23.226;2023-08-08T08:35:05;2.22;;;2.03;;
55314;SDS011;41619;42.816;23.226;2023-08-08T08:37:31;2.65;;;1.90;;
55314;SDS011;41619;42.816;23.226;2023-08-08T08:39:57;6.60;;;2.00;;
55314;SDS011;41619;42.816;23.226;2023-08-08T08:42:22;2.53;;;2.20;;
55314;SDS011;41619;42.816;23.226;2023-08-08T08:44:49;4.38;;;2.00;;
55314;SDS011;41619;42.816;23.226;2023-08-08T08:47:15;4.53;;;2.25;;
55314;SDS011;41619;42.816;23.226;2023-08-08T08:49:44;4.97;;;2.00;;
55314;SDS011;41619;42.816;23.226;2023-08-08T08:52:11;1.70;;;1.60;;
55314;SDS011;41619;42.816;23.226;2023-08-08T08:54:37;4.47;;;1.90;;
55314;SDS011;41619;42.816;23.226;2023-08-08T08:57:03;2.08;;;1.60;;
55314;SDS011;41619;42.816;23.226;2023-08-08T08:59:29;3.38;;;1.70;;
55314;SDS011;41619;42.816;23.226;2023-08-08T09:01:55;1.80;;;1.70;;
55314;SDS011;41619;42.816;23.226;2023-08-08T09:04:21;2.13;;;1.80;;
55314;SDS011;41619;42.816;23.226;2023-08-08T09:06:47;4.00;;;2.10;;
55314;SDS011;41619;42.816;23.226;2023-08-08T09:09:13;2.95;;;1.98;;
55314;SDS011;41619;42.816;23.226;2023-08-08T09:11:42;2.10;;;1.90;;
55314;SDS011;41619;42.816;23.226;2023-08-08T09:14:20;2.60;;;2.08;;
55314;SDS011;41619;42.816;23.226;2023-08-08T09:16:47;3.47;;;1.85;;
55314;SDS011;41619;42.816;23.226;2023-08-08T09:19:13;1.55;;;1.40;;
55314;SDS011;41619;42.816;23.226;2023-08-08T09:21:40;5.18;;;2.15;;
55314;SDS011;41619;42.816;23.226;2023-08-08T09:24:05;3.30;;;1.85;;
55314;SDS011;41619;42.816;23.226;2023-08-08T09:26:31;1.98;;;1.83;;
55314;SDS011;41619;42.816;23.226;2023-08-08T09:28:57;4.57;;;1.85;;
55314;SDS011;41619;42.816;23.226;2023-08-08T09:31:26;4.15;;;2.13;;
55314;SDS011;41619;42.816;23.226;2023-08-08T09:33:58;2.05;;;1.75;;
55314;SDS011;41619;42.816;23.226;2023-08-08T09:36:25;5.53;;;1.95;;
55314;SDS011;41619;42.816;23.226;2023-08-08T09:38:51;4.18;;;2.30;;
55314;SDS011;41619;42.816;23.226;2023-08-08T09:41:17;3.05;;;2.03;;
55314;SDS011;41619;42.816;23.226;2023-08-08T09:43:43;2.08;;;1.92;;
55314;SDS011;41619;42.816;23.226;2023-08-08T09:46:09;2.42;;;1.70;;
55314;SDS011;41619;42.816;23.226;2023-08-08T09:48:35;9.85;;;2.00;;
55314;SDS011;41619;42.816;23.226;2023-08-08T09:51:03;2.25;;;2.15;;
55314;SDS011;41619;42.816;23.226;2023-08-08T09:53:29;2.13;;;1.92;;
55314;SDS011;41619;42.816;23.226;2023-08-08T09:55:55;4.90;;;2.10;;
55314;SDS011;41619;42.816;23.226;2023-08-08T09:58:21;6.15;;;1.80;;
55314;SDS011;41619;42.816;23.226;2023-08-08T10:00:51;5.10;;;1.63;;
55314;SDS011;41619;42.816;23.226;2023-08-08T10:05:42;4.40;;;1.88;;
55314;SDS011;41619;42.816;23.226;2023-08-08T10:08:08;3.33;;;1.80;;
55314;SDS011;41619;42.816;23.226;2023-08-08T10:10:34;2.08;;;1.60;;
55314;SDS011;41619;42.816;23.226;2023-08-08T10:13:00;3.38;;;1.60;;
55314;SDS011;41619;42.816;23.226;2023-08-08T10:15:26;2.88;;;1.73;;
55314;SDS011;41619;42.816;23.226;2023-08-08T10:17:55;1.98;;;1.50;;
55314;SDS011;41619;42.816;23.226;2023-08-08T10:20:23;4.90;;;1.40;;
55314;SDS011;41619;42.816;23.226;2023-08-08T10:22:49;3.35;;;1.50;;
55314;SDS011;41619;42.816;23.226;2023-08-08T10:25:18;2.50;;;1.40;;
55314;SDS011;41619;42.816;23.226;2023-08-08T10:28:08;3.28;;;1.50;;
55314;SDS011;41619;42.816;23.226;2023-08-08T10:30:44;5.82;;;1.77;;
55314;SDS011;41619;42.816;23.226;2023-08-08T10:34:00;1.67;;;1.52;;
55314;SDS011;41619;42.816;23.226;2023-08-08T10:36:07;1.65;;;1.55;;
55314;SDS011;41619;42.816;23.226;2023-08-08T10:38:41;3.03;;;1.80;;
55314;SDS011;41619;42.816;23.226;2023-08-08T10:41:15;3.72;;;1.58;;
55314;SDS011;41619;42.816;23.226;2023-08-08T10:43:57;2.70;;;1.45;;
55314;SDS011;41619;42.816;23.226;2023-08-08T10:46:23;4.20;;;1.70;;
55314;SDS011;41619;42.816;23.226;2023-08-08T10:48:51;1.48;;;1.38;;
55314;SDS011;41619;42.816;23.226;2023-08-08T10:51:18;2.40;;;1.30;;
55314;SDS011;41619;42.816;23.226;2023-08-08T10:53:44;2.63;;;1.25;;
55314;SDS011;41619;42.816;23.226;2023-08-08T10:56:12;8.48;;;1.40;;
55314;SDS011;41619;42.816;23.226;2023-08-08T10:58:42;2.73;;;1.27;;
55314;SDS011;41619;42.816;23.226;2023-08-08T11:01:13;1.83;;;1.40;;
55314;SDS011;41619;42.816;23.226;2023-08-08T11:03:39;1.88;;;1.45;;
55314;SDS011;41619;42.816;23.226;2023-08-08T11:06:09;1.52;;;1.30;;
55314;SDS011;41619;42.816;23.226;2023-08-08T11:08:36;3.60;;;1.17;;
55314;SDS011;41619;42.816;23.226;2023-08-08T11:11:03;1.50;;;1.40;;
55314;SDS011;41619;42.816;23.226;2023-08-08T11:13:31;4.25;;;1.60;;
55314;SDS011;41619;42.816;23.226;2023-08-08T11:15:56;2.33;;;1.33;;
55314;SDS011;41619;42.816;23.226;2023-08-08T11:18:22;1.85;;;1.40;;
55314;SDS011;41619;42.816;23.226;2023-08-08T11:20:49;1.75;;;1.40;;
55314;SDS011;41619;42.816;23.226;2023-08-08T11:23:15;1.52;;;1.40;;
55314;SDS011;41619;42.816;23.226;2023-08-08T11:25:41;1.60;;;1.50;;
55314;SDS011;41619;42.816;23.226;2023-08-08T11:28:08;1.50;;;1.40;;
55314;SDS011;41619;42.816;23.226;2023-08-08T11:30:35;2.17;;;1.40;;
55314;SDS011;41619;42.816;23.226;2023-08-08T11:33:02;2.25;;;1.30;;
55314;SDS011;41619;42.816;23.226;2023-08-08T11:35:28;6.60;;;1.88;;
55314;SDS011;41619;42.816;23.226;2023-08-08T11:37:54;4.95;;;1.20;;
55314;SDS011;41619;42.816;23.226;2023-08-08T11:40:22;2.17;;;1.63;;
55314;SDS011;41619;42.816;23.226;2023-08-08T11:42:49;2.90;;;1.38;;
55314;SDS011;41619;42.816;23.226;2023-08-08T11:45:16;3.88;;;1.45;;
55314;SDS011;41619;42.816;23.226;2023-08-08T11:47:42;2.58;;;1.23;;
55314;SDS011;41619;42.816;23.226;2023-08-08T11:50:08;4.45;;;1.40;;
55314;SDS011;41619;42.816;23.226;2023-08-08T11:52:36;4.60;;;1.50;;
55314;SDS011;41619;42.816;23.226;2023-08-08T11:55:05;2.58;;;1.52;;
55314;SDS011;41619;42.816;23.226;2023-08-08T11:57:31;2.33;;;1.45;;
55314;SDS011;41619;42.816;23.226;2023-08-08T11:59:57;2.45;;;1.20;;
55314;SDS011;41619;42.816;23.226;2023-08-08T12:02:22;2.97;;;1.38;;
55314;SDS011;41619;42.816;23.226;2023-08-08T12:04:48;1.60;;;1.30;;
55314;SDS011;41619;42.816;23.226;2023-08-08T12:07:14;1.63;;;1.40;;
55314;SDS011;41619;42.816;23.226;2023-08-08T12:09:40;1.30;;;1.20;;
55314;SDS011;41619;42.816;23.226;2023-08-08T12:12:06;3.22;;;1.50;;
55314;SDS011;41619;42.816;23.226;2023-08-08T12:14:37;1.30;;;1.20;;
55314;SDS011;41619;42.816;23.226;2023-08-08T12:17:03;4.93;;;1.30;;
55314;SDS011;41619;42.816;23.226;2023-08-08T12:19:29;1.95;;;1.23;;
55314;SDS011;41619;42.816;23.226;2023-08-08T12:21:55;4.25;;;1.75;;
55314;SDS011;41619;42.816;23.226;2023-08-08T12:24:20;1.95;;;1.48;;
55314;SDS011;41619;42.816;23.226;2023-08-08T12:26:46;7.00;;;1.50;;
55314;SDS011;41619;42.816;23.226;2023-08-08T12:29:12;2.63;;;1.40;;
55314;SDS011;41619;42.816;23.226;2023-08-08T12:31:37;3.30;;;1.42;;
55314;SDS011;41619;42.816;23.226;2023-08-08T12:34:03;1.20;;;1.15;;
55314;SDS011;41619;42.816;23.226;2023-08-08T12:36:28;5.97;;;1.08;;
55314;SDS011;41619;42.816;23.226;2023-08-08T12:38:54;3.10;;;1.10;;
55314;SDS011;41619;42.816;23.226;2023-08-08T12:41:19;1.10;;;1.10;;
55314;SDS011;41619;42.816;23.226;2023-08-08T12:43:45;1.50;;;1.02;;
55314;SDS011;41619;42.816;23.226;2023-08-08T12:46:10;1.75;;;1.30;;
55314;SDS011;41619;42.816;23.226;2023-08-08T12:48:36;1.20;;;1.10;;
55314;SDS011;41619;42.816;23.226;2023-08-08T12:51:01;1.83;;;0.90;;
55314;SDS011;41619;42.816;23.226;2023-08-08T12:53:27;3.15;;;1.13;;
55314;SDS011;41619;42.816;23.226;2023-08-08T12:55:52;1.00;;;0.82;;
55314;SDS011;41619;42.816;23.226;2023-08-08T12:58:18;2.15;;;1.00;;
55314;SDS011;41619;42.816;23.226;2023-08-08T13:00:44;1.10;;;1.00;;
55314;SDS011;41619;42.816;23.226;2023-08-08T13:03:10;2.00;;;1.02;;
55314;SDS011;41619;42.816;23.226;2023-08-08T13:05:37;5.47;;;1.30;;
55314;SDS011;41619;42.816;23.226;2023-08-08T13:08:02;1.77;;;1.10;;
55314;SDS011;41619;42.816;23.226;2023-08-08T13:10:28;1.02;;;1.02;;
55314;SDS011;41619;42.816;23.226;2023-08-08T13:12:54;1.35;;;1.00;;
55314;SDS011;41619;42.816;23.226;2023-08-08T13:15:20;2.65;;;1.10;;
55314;SDS011;41619;42.816;23.226;2023-08-08T13:17:46;1.10;;;1.00;;
55314;SDS011;41619;42.816;23.226;2023-08-08T13:20:11;1.00;;;0.80;;
55314;SDS011;41619;42.816;23.226;2023-08-08T13:22:37;1.67;;;1.05;;
55314;SDS011;41619;42.816;23.226;2023-08-08T13:25:03;1.40;;;1.30;;
55314;SDS011;41619;42.816;23.226;2023-08-08T13:27:30;2.35;;;1.20;;
55314;SDS011;41619;42.816;23.226;2023-08-08T13:29:55;1.23;;;1.13;;
55314;SDS011;41619;42.816;23.226;2023-08-08T13:32:22;1.90;;;0.95;;
55314;SDS011;41619;42.816;23.226;2023-08-08T13:34:47;3.10;;;1.10;;
55314;SDS011;41619;42.816;23.226;2023-08-08T13:37:13;1.20;;;1.05;;
55314;SDS011;41619;42.816;23.226;2023-08-08T13:39:40;2.83;;;1.00;;
55314;SDS011;41619;42.816;23.226;2023-08-08T13:42:06;1.02;;;1.02;;
55314;SDS011;41619;42.816;23.226;2023-08-08T13:44:32;5.75;;;1.02;;
55314;SDS011;41619;42.816;23.226;2023-08-08T13:46:58;3.03;;;1.20;;
55314;SDS011;41619;42.816;23.226;2023-08-08T13:49:23;2.53;;;0.90;;
55314;SDS011;41619;42.816;23.226;2023-08-08T13:51:51;2.97;;;1.00;;
55314;SDS011;41619;42.816;23.226;2023-08-08T13:54:17;1.38;;;1.02;;
55314;SDS011;41619;42.816;23.226;2023-08-08T13:56:43;3.38;;;1.20;;
55314;SDS011;41619;42.816;23.226;2023-08-08T13:59:08;1.52;;;1.05;;
55314;SDS011;41619;42.816;23.226;2023-08-08T14:01:33;1.92;;;1.00;;
55314;SDS011;41619;42.816;23.226;2023-08-08T14:03:59;2.78;;;1.02;;
55314;SDS011;41619;42.816;23.226;2023-08-08T14:06:24;2.22;;;1.10;;
55314;SDS011;41619;42.816;23.226;2023-08-08T14:08:50;5.00;;;1.40;;
55314;SDS011;41619;42.816;23.226;2023-08-08T14:11:17;1.17;;;1.05;;
55314;SDS011;41619;42.816;23.226;2023-08-08T14:13:42;1.05;;;0.95;;
55314;SDS011;41619;42.816;23.226;2023-08-08T14:16:08;1.17;;;1.08;;
55314;SDS011;41619;42.816;23.226;2023-08-08T14:18:33;1.17;;;1.00;;
55314;SDS011;41619;42.816;23.226;2023-08-08T14:20:58;1.20;;;1.10;;
55314;SDS011;41619;42.816;23.226;2023-08-08T14:23:25;4.75;;;1.25;;
55314;SDS011;41619;42.816;23.226;2023-08-08T14:25:51;2.67;;;1.08;;
55314;SDS011;41619;42.816;23.226;2023-08-08T14:28:16;1.20;;;0.95;;
55314;SDS011;41619;42.816;23.226;2023-08-08T14:30:42;1.20;;;1.00;;
55314;SDS011;41619;42.816;23.226;2023-08-08T14:33:07;2.55;;;0.80;;